createdAt,value
2022-07-26T00:02:53.833Z,23.80
2022-07-26T00:08:17.405Z,23.80
2022-07-26T00:13:41.840Z,23.78
2022-07-26T00:19:05.330Z,23.75
2022-07-26T00:24:32.334Z,23.73
2022-07-26T00:29:54.283Z,23.72
2022-07-26T00:35:17.548Z,23.73
2022-07-26T00:40:40.974Z,23.72
2022-07-26T00:46:04.691Z,23.68
2022-07-26T00:51:27.982Z,23.62
2022-07-26T00:56:55.194Z,23.60
2022-07-26T01:02:18.741Z,23.59
2022-07-26T01:07:41.782Z,23.57
2022-07-26T01:13:04.761Z,23.56
2022-07-26T01:18:28.248Z,23.56
2022-07-26T01:23:51.461Z,23.57
2022-07-26T01:29:14.042Z,23.56
2022-07-26T01:34:36.426Z,23.54
2022-07-26T01:39:58.637Z,23.52
2022-07-26T01:45:22.514Z,23.50
2022-07-26T01:50:44.924Z,23.49
2022-07-26T01:56:07.750Z,23.46
2022-07-26T02:01:38.997Z,23.41
2022-07-26T02:06:53.958Z,23.38
2022-07-26T02:12:16.405Z,23.32
2022-07-26T02:17:38.680Z,23.25
2022-07-26T02:23:00.871Z,23.19
2022-07-26T02:28:23.683Z,23.12
2022-07-26T02:33:45.896Z,23.03
2022-07-26T02:39:08.181Z,22.96
2022-07-26T02:44:31.731Z,22.93
2022-07-26T02:49:53.911Z,22.87
2022-07-26T02:55:16.321Z,22.80
2022-07-26T03:00:40.607Z,22.73
2022-07-26T03:06:03.032Z,22.66
2022-07-26T03:11:25.907Z,22.63
2022-07-26T03:16:48.603Z,22.56
2022-07-26T03:22:11.343Z,22.47
2022-07-26T03:27:33.537Z,22.37
2022-07-26T03:32:56.082Z,22.29
2022-07-26T03:38:18.338Z,22.22
2022-07-26T03:43:40.550Z,22.15
2022-07-26T03:49:02.927Z,22.09
2022-07-26T03:54:25.406Z,22.03
2022-07-26T03:59:47.611Z,21.97
2022-07-26T04:05:09.861Z,21.94
2022-07-26T04:10:32.693Z,21.88
2022-07-26T04:15:54.951Z,21.76
2022-07-26T04:21:17.825Z,21.76
2022-07-26T04:26:40.898Z,21.79
2022-07-26T04:32:03.125Z,21.83
2022-07-26T04:37:25.341Z,21.80
2022-07-26T04:42:47.622Z,21.75
2022-07-26T04:48:11.166Z,21.69
2022-07-26T04:53:34.092Z,21.60
2022-07-26T04:58:57.638Z,21.38
2022-07-26T05:04:19.837Z,21.19
2022-07-26T05:09:43.402Z,21.10
2022-07-26T05:15:05.714Z,21.01
2022-07-26T05:20:32.482Z,20.96
2022-07-26T05:25:55.821Z,21.01
2022-07-26T05:31:18.208Z,21.06
2022-07-26T05:36:41.353Z,21.05
2022-07-26T05:42:03.556Z,21.04
2022-07-26T05:47:25.753Z,21.08
2022-07-26T05:52:48.025Z,21.18
2022-07-26T05:58:10.708Z,21.28
2022-07-26T06:03:32.959Z,21.34
2022-07-26T06:08:56.182Z,21.27
2022-07-26T06:14:18.767Z,21.18
2022-07-26T06:19:47.107Z,21.09
2022-07-26T06:25:06.228Z,20.97
2022-07-26T06:30:28.809Z,20.88
2022-07-26T06:35:51.164Z,20.89
2022-07-26T06:41:13.735Z,20.86
2022-07-26T06:46:36.600Z,20.77
2022-07-26T06:51:58.803Z,20.67
2022-07-26T06:57:21.974Z,20.50
2022-07-26T07:02:44.553Z,20.21
2022-07-26T07:08:07.388Z,19.95
2022-07-26T07:13:29.791Z,19.79
2022-07-26T07:18:52.445Z,19.66
2022-07-26T07:24:14.859Z,19.51
2022-07-26T07:29:37.126Z,19.38
2022-07-26T07:35:00.488Z,19.31
2022-07-26T07:40:26.773Z,19.20
2022-07-26T07:45:49.104Z,19.24
2022-07-26T07:51:12.575Z,19.35
2022-07-26T07:56:35.152Z,19.49
2022-07-26T08:01:57.409Z,19.65
2022-07-26T08:07:20.093Z,19.83
2022-07-26T08:12:42.353Z,19.88
2022-07-26T08:18:05.020Z,19.95
2022-07-26T08:23:30.447Z,20.11
2022-07-26T08:29:09.422Z,20.34
2022-07-26T08:34:18.445Z,20.53
2022-07-26T08:39:41.402Z,20.69
2022-07-26T08:45:07.874Z,20.78
2022-07-26T08:50:30.254Z,20.85
2022-07-26T08:56:06.851Z,20.91
2022-07-26T09:01:26.753Z,21.04
2022-07-26T09:06:50.709Z,21.21
2022-07-26T09:12:27.516Z,21.32
2022-07-26T09:18:05.426Z,21.48
2022-07-26T09:23:29.352Z,21.53
2022-07-26T09:28:51.546Z,21.62
2022-07-26T09:34:14.683Z,21.77
2022-07-26T09:39:37.469Z,21.96
2022-07-26T09:45:03.496Z,22.16
2022-07-26T09:50:38.970Z,22.24
2022-07-26T09:56:12.500Z,22.16
2022-07-26T10:01:35.262Z,22.18
2022-07-26T10:07:01.741Z,22.27
2022-07-26T10:12:30.449Z,22.34
2022-07-26T10:17:58.169Z,22.46
2022-07-26T10:23:39.094Z,22.61
2022-07-26T10:29:01.868Z,22.90
2022-07-26T10:34:39.580Z,23.19
2022-07-26T10:40:03.604Z,23.39
2022-07-26T10:45:37.710Z,23.46
2022-07-26T10:51:06.248Z,23.38
2022-07-26T10:56:29.903Z,23.42
2022-07-26T11:01:55.827Z,23.57
2022-07-26T11:07:19.574Z,23.77
2022-07-26T11:12:42.239Z,24.03
2022-07-26T11:18:14.330Z,24.21
2022-07-26T11:23:46.388Z,24.32
2022-07-26T11:29:22.619Z,24.42
2022-07-26T11:34:46.057Z,24.38
2022-07-26T11:40:08.323Z,24.31
2022-07-26T11:45:31.257Z,24.21
2022-07-26T11:50:53.976Z,24.20
2022-07-26T11:56:29.252Z,24.32
2022-07-26T12:01:52.663Z,24.38
2022-07-26T12:07:20.221Z,24.38
2022-07-26T12:12:44.033Z,24.32
2022-07-26T12:18:20.958Z,24.05
2022-07-26T12:23:55.042Z,23.92
2022-07-26T12:29:26.709Z,24.03
2022-07-26T12:34:51.041Z,24.04
2022-07-26T12:40:23.313Z,23.91
2022-07-26T12:45:47.708Z,23.77
2022-07-26T12:51:10.557Z,23.82
2022-07-26T12:56:32.758Z,24.01
2022-07-26T13:01:55.063Z,24.31
2022-07-26T13:07:18.109Z,24.65
2022-07-26T13:12:41.062Z,24.94
2022-07-26T13:18:03.369Z,25.11
2022-07-26T13:23:26.900Z,25.16
2022-07-26T13:28:50.163Z,25.10
2022-07-26T13:34:13.999Z,24.90
2022-07-26T13:39:36.640Z,24.61
2022-07-26T13:44:58.908Z,24.41
2022-07-26T13:50:21.979Z,24.46
2022-07-26T13:55:44.704Z,24.76
2022-07-26T14:01:08.039Z,25.16
2022-07-26T14:06:30.818Z,25.55
2022-07-26T14:11:54.703Z,25.90
2022-07-26T14:17:17.352Z,26.01
2022-07-26T14:22:40.070Z,26.16
2022-07-26T14:28:02.963Z,26.60
2022-07-26T14:33:25.685Z,26.73
2022-07-26T14:38:50.304Z,26.59
2022-07-26T14:44:12.924Z,26.24
2022-07-26T14:49:35.604Z,25.90
2022-07-26T14:54:57.877Z,25.72
2022-07-26T15:00:25.372Z,25.50
2022-07-26T15:05:48.656Z,25.46
2022-07-26T15:11:10.864Z,25.45
2022-07-26T15:16:33.079Z,25.51
2022-07-26T15:21:55.870Z,25.73
2022-07-26T15:27:19.380Z,25.97
2022-07-26T15:32:42.911Z,26.24
2022-07-26T15:38:05.137Z,26.19
2022-07-26T15:43:44.381Z,26.09
2022-07-26T15:48:58.523Z,26.06
2022-07-26T15:54:22.805Z,25.98
2022-07-26T15:59:45.027Z,25.68
2022-07-26T16:05:07.283Z,25.57
2022-07-26T16:10:30.964Z,25.73
2022-07-26T16:15:53.227Z,26.73
2022-07-26T16:21:15.425Z,27.36
2022-07-26T16:26:38.038Z,28.86
2022-07-26T16:32:00.383Z,30.28
2022-07-26T16:37:23.252Z,30.37
2022-07-26T16:42:45.598Z,30.35
2022-07-26T16:48:07.823Z,30.88
2022-07-26T16:53:30.039Z,31.60
2022-07-26T16:58:52.656Z,31.77
2022-07-26T17:04:17.071Z,31.35
2022-07-26T17:09:39.820Z,30.67
2022-07-26T17:15:02.875Z,29.30
2022-07-26T17:20:25.847Z,27.90
2022-07-26T17:25:49.262Z,26.82
2022-07-26T17:31:11.493Z,25.96
2022-07-26T17:36:40.005Z,25.27
2022-07-26T17:42:04.546Z,24.71
2022-07-26T17:47:28.956Z,24.02
2022-07-26T17:52:50.817Z,23.39
2022-07-26T17:58:13.095Z,22.85
2022-07-26T18:03:35.267Z,22.44
2022-07-26T18:08:57.545Z,22.10
2022-07-26T18:14:20.468Z,21.86
2022-07-26T18:19:42.954Z,21.66
2022-07-26T18:25:05.155Z,21.40
2022-07-26T18:30:29.180Z,21.12
2022-07-26T18:35:51.785Z,20.94
2022-07-26T18:41:14.827Z,20.79
2022-07-26T18:46:37.428Z,20.64
2022-07-26T18:52:08.406Z,20.52
2022-07-26T18:57:25.324Z,20.44
2022-07-26T19:02:48.666Z,20.38
2022-07-26T19:08:11.025Z,20.29
2022-07-26T19:13:33.255Z,20.22
2022-07-26T19:18:57.452Z,20.09
2022-07-26T19:24:19.858Z,19.99
2022-07-26T19:29:42.733Z,19.93
2022-07-26T19:35:05.013Z,19.89
2022-07-26T19:40:27.581Z,19.84
2022-07-26T19:45:49.897Z,19.79
2022-07-26T19:51:12.128Z,19.74
2022-07-26T19:56:34.470Z,19.67
2022-07-26T20:01:58.322Z,19.63
2022-07-26T20:07:21.498Z,19.54
2022-07-26T20:12:43.757Z,19.45
2022-07-26T20:18:07.812Z,19.38
2022-07-26T20:23:30.517Z,19.29
2022-07-26T20:28:53.492Z,19.18
2022-07-26T20:34:15.733Z,19.08
2022-07-26T20:39:38.619Z,19.02
2022-07-26T20:45:01.440Z,18.90
2022-07-26T20:50:24.361Z,18.79
2022-07-26T20:55:47.322Z,18.69
2022-07-26T21:01:11.090Z,18.59
2022-07-26T21:06:33.676Z,18.45
2022-07-26T21:11:56.892Z,18.35
2022-07-26T21:17:19.283Z,18.28
2022-07-26T21:22:41.641Z,18.21
2022-07-26T21:28:04.478Z,18.10
2022-07-26T21:33:26.934Z,18.04
2022-07-26T21:38:49.571Z,17.98
2022-07-26T21:44:11.954Z,17.93
2022-07-26T21:49:34.912Z,17.87
2022-07-26T21:54:57.179Z,17.85
2022-07-26T22:00:21.107Z,17.80
2022-07-26T22:05:43.972Z,17.76
2022-07-26T22:11:06.564Z,17.74
2022-07-26T22:16:30.217Z,17.68
2022-07-26T22:21:52.877Z,17.61
2022-07-26T22:27:15.298Z,17.46
2022-07-26T22:32:38.559Z,17.28
2022-07-26T22:38:01.629Z,17.13
2022-07-26T22:43:25.002Z,17.06
2022-07-26T22:48:48.173Z,16.89
2022-07-26T22:54:11.251Z,16.72
2022-07-26T22:59:33.461Z,16.61
2022-07-26T23:04:55.678Z,16.56
2022-07-26T23:10:21.398Z,16.52
2022-07-26T23:15:46.215Z,16.45
2022-07-26T23:21:07.855Z,16.27
2022-07-26T23:26:30.076Z,16.07
2022-07-26T23:31:52.934Z,15.87
2022-07-26T23:37:15.302Z,15.68
2022-07-26T23:42:37.514Z,15.51
2022-07-26T23:48:02.572Z,15.37
2022-07-26T23:53:26.932Z,15.26
2022-07-26T23:58:50.528Z,15.13
